sensor_id;sensor_type;location;lat;lon;timestamp;temperature;humidity
1405;DHT22;697;51.114;6.542;2023-09-18T00:00:44;23.30;96.10
1405;DHT22;697;51.114;6.542;2023-09-18T00:03:11;23.30;96.10
1405;DHT22;697;51.114;6.542;2023-09-18T00:05:37;23.30;96.20
1405;DHT22;697;51.114;6.542;2023-09-18T00:08:04;23.30;96.20
1405;DHT22;697;51.114;6.542;2023-09-18T00:10:31;23.30;96.20
1405;DHT22;697;51.114;6.542;2023-09-18T00:12:59;23.30;96.20
1405;DHT22;697;51.114;6.542;2023-09-18T00:15:26;23.20;96.20
1405;DHT22;697;51.114;6.542;2023-09-18T00:17:53;23.20;96.10
1405;DHT22;697;51.114;6.542;2023-09-18T00:20:21;23.20;96.10
1405;DHT22;697;51.114;6.542;2023-09-18T00:22:53;23.10;96.10
1405;DHT22;697;51.114;6.542;2023-09-18T00:25:20;23.10;96.30
1405;DHT22;697;51.114;6.542;2023-09-18T00:27:46;23.10;96.40
1405;DHT22;697;51.114;6.542;2023-09-18T00:30:14;23.10;96.40
1405;DHT22;697;51.114;6.542;2023-09-18T00:32:41;23.00;96.30
1405;DHT22;697;51.114;6.542;2023-09-18T00:35:08;23.00;96.40
1405;DHT22;697;51.114;6.542;2023-09-18T00:37:34;22.90;96.40
1405;DHT22;697;51.114;6.542;2023-09-18T00:40:02;22.90;96.50
1405;DHT22;697;51.114;6.542;2023-09-18T00:42:30;22.90;96.50
1405;DHT22;697;51.114;6.542;2023-09-18T00:44:57;22.80;96.50
1405;DHT22;697;51.114;6.542;2023-09-18T00:47:25;22.80;96.60
1405;DHT22;697;51.114;6.542;2023-09-18T00:49:52;22.80;96.80
1405;DHT22;697;51.114;6.542;2023-09-18T00:52:20;22.80;96.90
1405;DHT22;697;51.114;6.542;2023-09-18T00:54:48;22.80;97.00
1405;DHT22;697;51.114;6.542;2023-09-18T00:57:15;22.80;97.10
1405;DHT22;697;51.114;6.542;2023-09-18T00:59:43;22.80;97.10
1405;DHT22;697;51.114;6.542;2023-09-18T01:02:10;22.80;97.10
1405;DHT22;697;51.114;6.542;2023-09-18T01:04:38;22.80;97.20
1405;DHT22;697;51.114;6.542;2023-09-18T01:07:10;22.80;97.20
1405;DHT22;697;51.114;6.542;2023-09-18T01:09:36;22.80;97.20
1405;DHT22;697;51.114;6.542;2023-09-18T01:12:08;22.80;97.30
1405;DHT22;697;51.114;6.542;2023-09-18T01:14:39;22.80;97.40
1405;DHT22;697;51.114;6.542;2023-09-18T01:17:09;22.80;97.40
1405;DHT22;697;51.114;6.542;2023-09-18T01:19:39;22.70;97.40
1405;DHT22;697;51.114;6.542;2023-09-18T01:22:07;22.80;97.40
1405;DHT22;697;51.114;6.542;2023-09-18T01:24:37;22.80;97.50
1405;DHT22;697;51.114;6.542;2023-09-18T01:27:05;22.80;97.50
1405;DHT22;697;51.114;6.542;2023-09-18T01:29:32;22.70;97.50
1405;DHT22;697;51.114;6.542;2023-09-18T01:31:59;22.70;97.60
1405;DHT22;697;51.114;6.542;2023-09-18T01:34:30;22.70;97.60
1405;DHT22;697;51.114;6.542;2023-09-18T01:36:59;22.70;97.60
1405;DHT22;697;51.114;6.542;2023-09-18T01:39:27;22.60;97.60
1405;DHT22;697;51.114;6.542;2023-09-18T01:41:58;22.60;97.60
1405;DHT22;697;51.114;6.542;2023-09-18T01:44:25;22.60;97.70
1405;DHT22;697;51.114;6.542;2023-09-18T01:46:52;22.50;97.60
1405;DHT22;697;51.114;6.542;2023-09-18T01:49:27;22.50;97.60
1405;DHT22;697;51.114;6.542;2023-09-18T01:51:54;22.50;97.70
1405;DHT22;697;51.114;6.542;2023-09-18T01:54:20;22.50;97.70
1405;DHT22;697;51.114;6.542;2023-09-18T01:56:47;22.60;97.70
1405;DHT22;697;51.114;6.542;2023-09-18T01:59:15;22.60;97.70
1405;DHT22;697;51.114;6.542;2023-09-18T02:01:42;22.60;97.80
1405;DHT22;697;51.114;6.542;2023-09-18T02:04:08;22.60;97.80
1405;DHT22;697;51.114;6.542;2023-09-18T02:06:35;22.60;97.80
1405;DHT22;697;51.114;6.542;2023-09-18T02:09:02;22.70;97.80
1405;DHT22;697;51.114;6.542;2023-09-18T02:11:29;22.70;97.90
1405;DHT22;697;51.114;6.542;2023-09-18T02:13:56;22.70;97.90
1405;DHT22;697;51.114;6.542;2023-09-18T02:16:24;22.70;97.90
1405;DHT22;697;51.114;6.542;2023-09-18T02:18:54;22.70;97.90
1405;DHT22;697;51.114;6.542;2023-09-18T02:21:21;22.60;97.80
1405;DHT22;697;51.114;6.542;2023-09-18T02:23:49;22.60;97.90
1405;DHT22;697;51.114;6.542;2023-09-18T02:26:15;22.60;97.90
1405;DHT22;697;51.114;6.542;2023-09-18T02:28:42;22.60;97.90
1405;DHT22;697;51.114;6.542;2023-09-18T02:31:09;22.60;98.00
1405;DHT22;697;51.114;6.542;2023-09-18T02:33:37;22.60;98.10
1405;DHT22;697;51.114;6.542;2023-09-18T02:36:04;22.50;98.10
1405;DHT22;697;51.114;6.542;2023-09-18T02:38:33;22.50;98.30
1405;DHT22;697;51.114;6.542;2023-09-18T02:41:00;22.50;98.30
1405;DHT22;697;51.114;6.542;2023-09-18T02:43:26;22.50;98.30
1405;DHT22;697;51.114;6.542;2023-09-18T02:45:53;22.40;98.00
1405;DHT22;697;51.114;6.542;2023-09-18T02:48:23;22.20;97.90
1405;DHT22;697;51.114;6.542;2023-09-18T02:50:51;22.20;98.10
1405;DHT22;697;51.114;6.542;2023-09-18T02:53:18;22.20;98.30
1405;DHT22;697;51.114;6.542;2023-09-18T02:55:46;22.20;98.50
1405;DHT22;697;51.114;6.542;2023-09-18T02:58:13;22.10;98.70
1405;DHT22;697;51.114;6.542;2023-09-18T03:00:41;22.10;99.10
1405;DHT22;697;51.114;6.542;2023-09-18T03:03:08;22.00;99.50
1405;DHT22;697;51.114;6.542;2023-09-18T03:05:35;22.00;99.30
1405;DHT22;697;51.114;6.542;2023-09-18T03:08:04;22.00;99.40
1405;DHT22;697;51.114;6.542;2023-09-18T03:10:33;21.90;99.50
1405;DHT22;697;51.114;6.542;2023-09-18T03:13:00;21.80;99.90
1405;DHT22;697;51.114;6.542;2023-09-18T03:15:27;21.80;99.80
1405;DHT22;697;51.114;6.542;2023-09-18T03:17:54;21.70;99.90
1405;DHT22;697;51.114;6.542;2023-09-18T03:20:22;21.70;99.90
1405;DHT22;697;51.114;6.542;2023-09-18T03:22:50;21.60;99.90
1405;DHT22;697;51.114;6.542;2023-09-18T03:25:18;21.70;99.90
1405;DHT22;697;51.114;6.542;2023-09-18T03:27:44;21.70;99.90
1405;DHT22;697;51.114;6.542;2023-09-18T03:30:11;21.80;99.90
1405;DHT22;697;51.114;6.542;2023-09-18T03:32:41;21.90;99.90
1405;DHT22;697;51.114;6.542;2023-09-18T03:35:08;21.90;99.90
1405;DHT22;697;51.114;6.542;2023-09-18T03:37:40;22.00;99.90
1405;DHT22;697;51.114;6.542;2023-09-18T03:40:08;22.00;99.90
1405;DHT22;697;51.114;6.542;2023-09-18T03:42:37;22.10;99.90
1405;DHT22;697;51.114;6.542;2023-09-18T03:45:06;22.10;99.90
1405;DHT22;697;51.114;6.542;2023-09-18T03:47:33;22.10;99.80
1405;DHT22;697;51.114;6.542;2023-09-18T03:50:01;22.10;99.60
1405;DHT22;697;51.114;6.542;2023-09-18T03:52:27;22.10;99.50
1405;DHT22;697;51.114;6.542;2023-09-18T03:54:54;22.20;99.50
1405;DHT22;697;51.114;6.542;2023-09-18T03:57:21;22.10;99.40
1405;DHT22;697;51.114;6.542;2023-09-18T03:59:49;22.10;99.40
1405;DHT22;697;51.114;6.542;2023-09-18T04:02:15;22.10;99.30
1405;DHT22;697;51.114;6.542;2023-09-18T04:04:42;22.10;99.30
1405;DHT22;697;51.114;6.542;2023-09-18T04:07:09;22.00;99.30
1405;DHT22;697;51.114;6.542;2023-09-18T04:09:37;22.00;99.50
1405;DHT22;697;51.114;6.542;2023-09-18T04:12:05;21.90;99.80
1405;DHT22;697;51.114;6.542;2023-09-18T04:14:32;21.80;99.80
1405;DHT22;697;51.114;6.542;2023-09-18T04:17:00;21.70;99.90
1405;DHT22;697;51.114;6.542;2023-09-18T04:19:27;21.70;99.90
1405;DHT22;697;51.114;6.542;2023-09-18T04:21:54;21.80;99.90
1405;DHT22;697;51.114;6.542;2023-09-18T04:24:21;21.70;99.70
1405;DHT22;697;51.114;6.542;2023-09-18T04:26:49;21.70;99.60
1405;DHT22;697;51.114;6.542;2023-09-18T04:29:16;21.60;99.40
1405;DHT22;697;51.114;6.542;2023-09-18T04:31:43;21.60;99.20
1405;DHT22;697;51.114;6.542;2023-09-18T04:34:11;21.70;99.20
1405;DHT22;697;51.114;6.542;2023-09-18T04:36:38;21.60;99.00
1405;DHT22;697;51.114;6.542;2023-09-18T04:39:05;21.70;99.10
1405;DHT22;697;51.114;6.542;2023-09-18T04:41:32;21.70;99.10
1405;DHT22;697;51.114;6.542;2023-09-18T04:43:59;21.70;99.10
1405;DHT22;697;51.114;6.542;2023-09-18T04:46:26;21.70;98.90
1405;DHT22;697;51.114;6.542;2023-09-18T04:48:52;21.80;99.10
1405;DHT22;697;51.114;6.542;2023-09-18T04:51:20;21.80;99.00
1405;DHT22;697;51.114;6.542;2023-09-18T04:53:47;21.80;99.00
1405;DHT22;697;51.114;6.542;2023-09-18T04:56:14;21.90;99.00
1405;DHT22;697;51.114;6.542;2023-09-18T04:58:40;21.90;99.00
1405;DHT22;697;51.114;6.542;2023-09-18T05:01:07;21.80;98.90
1405;DHT22;697;51.114;6.542;2023-09-18T05:03:36;21.90;99.00
1405;DHT22;697;51.114;6.542;2023-09-18T05:06:03;21.90;99.10
1405;DHT22;697;51.114;6.542;2023-09-18T05:08:31;21.90;99.10
1405;DHT22;697;51.114;6.542;2023-09-18T05:10:58;21.90;99.10
1405;DHT22;697;51.114;6.542;2023-09-18T05:13:25;21.90;99.30
1405;DHT22;697;51.114;6.542;2023-09-18T05:15:51;21.80;99.20
1405;DHT22;697;51.114;6.542;2023-09-18T05:18:18;21.80;99.30
1405;DHT22;697;51.114;6.542;2023-09-18T05:20:45;21.80;99.40
1405;DHT22;697;51.114;6.542;2023-09-18T05:23:12;21.80;99.50
1405;DHT22;697;51.114;6.542;2023-09-18T05:25:41;21.80;99.50
1405;DHT22;697;51.114;6.542;2023-09-18T05:28:09;21.80;99.70
1405;DHT22;697;51.114;6.542;2023-09-18T05:30:36;21.80;99.70
1405;DHT22;697;51.114;6.542;2023-09-18T05:33:04;21.80;99.60
1405;DHT22;697;51.114;6.542;2023-09-18T05:35:33;21.70;99.50
1405;DHT22;697;51.114;6.542;2023-09-18T05:38:00;21.70;99.60
1405;DHT22;697;51.114;6.542;2023-09-18T05:40:26;21.70;99.60
1405;DHT22;697;51.114;6.542;2023-09-18T05:42:55;21.70;99.60
1405;DHT22;697;51.114;6.542;2023-09-18T05:45:22;21.80;99.60
1405;DHT22;697;51.114;6.542;2023-09-18T05:47:50;21.70;99.50
1405;DHT22;697;51.114;6.542;2023-09-18T05:50:18;21.70;99.50
1405;DHT22;697;51.114;6.542;2023-09-18T05:52:46;21.70;99.60
1405;DHT22;697;51.114;6.542;2023-09-18T05:55:14;21.60;99.20
1405;DHT22;697;51.114;6.542;2023-09-18T05:57:41;21.60;99.20
1405;DHT22;697;51.114;6.542;2023-09-18T06:00:10;21.70;99.10
1405;DHT22;697;51.114;6.542;2023-09-18T06:02:38;21.70;99.10
1405;DHT22;697;51.114;6.542;2023-09-18T06:05:06;21.70;98.90
1405;DHT22;697;51.114;6.542;2023-09-18T06:07:33;21.80;98.70
1405;DHT22;697;51.114;6.542;2023-09-18T06:09:59;21.80;98.30
1405;DHT22;697;51.114;6.542;2023-09-18T06:12:26;21.80;98.30
1405;DHT22;697;51.114;6.542;2023-09-18T06:14:53;21.80;98.20
1405;DHT22;697;51.114;6.542;2023-09-18T06:17:21;21.90;98.30
1405;DHT22;697;51.114;6.542;2023-09-18T06:19:47;21.80;98.20
1405;DHT22;697;51.114;6.542;2023-09-18T06:22:14;21.80;98.20
1405;DHT22;697;51.114;6.542;2023-09-18T06:24:41;21.80;98.10
1405;DHT22;697;51.114;6.542;2023-09-18T06:27:08;21.80;97.90
1405;DHT22;697;51.114;6.542;2023-09-18T06:29:36;21.90;97.90
1405;DHT22;697;51.114;6.542;2023-09-18T06:32:05;21.90;97.50
1405;DHT22;697;51.114;6.542;2023-09-18T06:34:33;22.00;97.50
1405;DHT22;697;51.114;6.542;2023-09-18T06:37:00;22.00;97.30
1405;DHT22;697;51.114;6.542;2023-09-18T06:39:28;22.00;97.10
1405;DHT22;697;51.114;6.542;2023-09-18T06:41:55;22.00;96.90
1405;DHT22;697;51.114;6.542;2023-09-18T06:44:22;22.00;96.40
1405;DHT22;697;51.114;6.542;2023-09-18T06:46:49;22.10;96.30
1405;DHT22;697;51.114;6.542;2023-09-18T06:49:16;22.20;96.10
1405;DHT22;697;51.114;6.542;2023-09-18T06:51:44;22.20;95.80
1405;DHT22;697;51.114;6.542;2023-09-18T06:54:11;22.20;95.90
1405;DHT22;697;51.114;6.542;2023-09-18T06:56:37;22.30;95.80
1405;DHT22;697;51.114;6.542;2023-09-18T06:59:04;22.30;95.50
1405;DHT22;697;51.114;6.542;2023-09-18T07:01:31;22.30;95.40
1405;DHT22;697;51.114;6.542;2023-09-18T07:03:58;22.40;95.60
1405;DHT22;697;51.114;6.542;2023-09-18T07:06:25;22.40;95.20
1405;DHT22;697;51.114;6.542;2023-09-18T07:08:53;22.40;94.90
1405;DHT22;697;51.114;6.542;2023-09-18T07:11:20;22.40;94.90
1405;DHT22;697;51.114;6.542;2023-09-18T07:13:46;22.40;94.70
1405;DHT22;697;51.114;6.542;2023-09-18T07:16:13;22.50;94.80
1405;DHT22;697;51.114;6.542;2023-09-18T07:18:40;22.50;94.70
1405;DHT22;697;51.114;6.542;2023-09-18T07:21:07;22.50;94.70
1405;DHT22;697;51.114;6.542;2023-09-18T07:23:34;22.50;94.40
1405;DHT22;697;51.114;6.542;2023-09-18T07:26:03;22.60;94.30
1405;DHT22;697;51.114;6.542;2023-09-18T07:28:31;22.50;94.10
1405;DHT22;697;51.114;6.542;2023-09-18T07:31:04;22.60;94.10
1405;DHT22;697;51.114;6.542;2023-09-18T07:33:31;22.60;94.10
1405;DHT22;697;51.114;6.542;2023-09-18T07:35:58;22.60;93.90
1405;DHT22;697;51.114;6.542;2023-09-18T07:38:24;22.50;93.60
1405;DHT22;697;51.114;6.542;2023-09-18T07:40:51;22.50;93.60
1405;DHT22;697;51.114;6.542;2023-09-18T07:43:19;22.60;93.90
1405;DHT22;697;51.114;6.542;2023-09-18T07:45:46;22.60;93.70
1405;DHT22;697;51.114;6.542;2023-09-18T07:48:13;22.60;93.80
1405;DHT22;697;51.114;6.542;2023-09-18T07:50:43;22.60;93.90
1405;DHT22;697;51.114;6.542;2023-09-18T07:53:10;22.60;93.60
1405;DHT22;697;51.114;6.542;2023-09-18T07:55:37;22.60;93.10
1405;DHT22;697;51.114;6.542;2023-09-18T07:58:04;22.70;93.40
1405;DHT22;697;51.114;6.542;2023-09-18T08:00:32;22.70;93.00
1405;DHT22;697;51.114;6.542;2023-09-18T08:02:59;22.70;92.70
1405;DHT22;697;51.114;6.542;2023-09-18T08:05:27;22.70;92.80
1405;DHT22;697;51.114;6.542;2023-09-18T08:07:55;22.70;93.00
1405;DHT22;697;51.114;6.542;2023-09-18T08:10:22;22.80;93.30
1405;DHT22;697;51.114;6.542;2023-09-18T08:12:49;22.90;92.70
1405;DHT22;697;51.114;6.542;2023-09-18T08:15:18;23.00;92.60
1405;DHT22;697;51.114;6.542;2023-09-18T08:17:47;23.10;92.20
1405;DHT22;697;51.114;6.542;2023-09-18T08:20:15;23.20;92.00
1405;DHT22;697;51.114;6.542;2023-09-18T08:22:42;23.30;92.00
1405;DHT22;697;51.114;6.542;2023-09-18T08:25:09;23.20;91.20
1405;DHT22;697;51.114;6.542;2023-09-18T08:27:37;23.30;91.20
1405;DHT22;697;51.114;6.542;2023-09-18T08:30:06;23.30;91.40
1405;DHT22;697;51.114;6.542;2023-09-18T08:32:34;23.30;91.30
1405;DHT22;697;51.114;6.542;2023-09-18T08:35:02;23.30;91.30
1405;DHT22;697;51.114;6.542;2023-09-18T08:37:29;23.30;91.30
1405;DHT22;697;51.114;6.542;2023-09-18T08:39:56;23.40;91.40
1405;DHT22;697;51.114;6.542;2023-09-18T08:42:23;23.60;91.40
1405;DHT22;697;51.114;6.542;2023-09-18T08:44:51;23.60;91.20
1405;DHT22;697;51.114;6.542;2023-09-18T08:47:20;23.60;90.40
1405;DHT22;697;51.114;6.542;2023-09-18T08:49:49;23.60;90.10
1405;DHT22;697;51.114;6.542;2023-09-18T08:52:19;23.70;90.10
1405;DHT22;697;51.114;6.542;2023-09-18T08:54:49;23.70;90.00
1405;DHT22;697;51.114;6.542;2023-09-18T08:57:17;23.70;89.40
1405;DHT22;697;51.114;6.542;2023-09-18T08:59:44;23.60;89.60
1405;DHT22;697;51.114;6.542;2023-09-18T09:02:11;23.60;89.30
1405;DHT22;697;51.114;6.542;2023-09-18T09:04:38;23.60;89.10
1405;DHT22;697;51.114;6.542;2023-09-18T09:07:05;23.70;89.60
1405;DHT22;697;51.114;6.542;2023-09-18T09:09:34;23.80;89.80
1405;DHT22;697;51.114;6.542;2023-09-18T09:12:01;23.90;89.10
1405;DHT22;697;51.114;6.542;2023-09-18T09:14:28;24.10;88.60
1405;DHT22;697;51.114;6.542;2023-09-18T09:16:56;24.10;86.70
1405;DHT22;697;51.114;6.542;2023-09-18T09:19:30;24.10;87.00
1405;DHT22;697;51.114;6.542;2023-09-18T09:21:58;24.10;86.40
1405;DHT22;697;51.114;6.542;2023-09-18T09:24:39;24.10;86.70
1405;DHT22;697;51.114;6.542;2023-09-18T09:27:06;24.20;87.10
1405;DHT22;697;51.114;6.542;2023-09-18T09:29:33;24.30;85.20
1405;DHT22;697;51.114;6.542;2023-09-18T09:32:12;24.40;83.90
1405;DHT22;697;51.114;6.542;2023-09-18T09:34:41;24.50;84.00
1405;DHT22;697;51.114;6.542;2023-09-18T09:37:08;24.60;84.10
1405;DHT22;697;51.114;6.542;2023-09-18T09:39:36;24.60;83.80
1405;DHT22;697;51.114;6.542;2023-09-18T09:42:16;24.70;82.70
1405;DHT22;697;51.114;6.542;2023-09-18T09:44:44;24.70;82.60
1405;DHT22;697;51.114;6.542;2023-09-18T09:47:11;24.70;82.10
1405;DHT22;697;51.114;6.542;2023-09-18T09:49:45;24.70;82.80
1405;DHT22;697;51.114;6.542;2023-09-18T09:52:18;24.60;83.10
1405;DHT22;697;51.114;6.542;2023-09-18T09:54:48;24.50;81.40
1405;DHT22;697;51.114;6.542;2023-09-18T09:57:14;24.50;81.80
1405;DHT22;697;51.114;6.542;2023-09-18T09:59:42;24.50;82.80
1405;DHT22;697;51.114;6.542;2023-09-18T10:02:10;24.60;82.10
1405;DHT22;697;51.114;6.542;2023-09-18T10:04:38;24.60;81.80
1405;DHT22;697;51.114;6.542;2023-09-18T10:07:07;24.70;80.30
1405;DHT22;697;51.114;6.542;2023-09-18T10:09:35;24.70;80.40
1405;DHT22;697;51.114;6.542;2023-09-18T10:12:10;24.90;79.70
1405;DHT22;697;51.114;6.542;2023-09-18T10:14:37;25.20;79.50
1405;DHT22;697;51.114;6.542;2023-09-18T10:17:12;25.70;77.70
1405;DHT22;697;51.114;6.542;2023-09-18T10:19:47;26.30;76.70
1405;DHT22;697;51.114;6.542;2023-09-18T10:22:29;26.90;72.20
1405;DHT22;697;51.114;6.542;2023-09-18T10:25:03;27.40;68.00
1405;DHT22;697;51.114;6.542;2023-09-18T10:27:36;27.80;65.50
1405;DHT22;697;51.114;6.542;2023-09-18T10:30:05;28.20;60.80
1405;DHT22;697;51.114;6.542;2023-09-18T10:32:36;28.50;59.70
1405;DHT22;697;51.114;6.542;2023-09-18T10:35:05;28.90;58.60
1405;DHT22;697;51.114;6.542;2023-09-18T10:37:33;29.30;57.30
1405;DHT22;697;51.114;6.542;2023-09-18T10:40:00;29.80;56.10
1405;DHT22;697;51.114;6.542;2023-09-18T10:42:28;30.30;52.80
1405;DHT22;697;51.114;6.542;2023-09-18T10:44:57;30.70;52.50
1405;DHT22;697;51.114;6.542;2023-09-18T10:47:24;31.00;51.50
1405;DHT22;697;51.114;6.542;2023-09-18T10:49:51;31.20;50.30
1405;DHT22;697;51.114;6.542;2023-09-18T10:52:18;31.60;48.70
1405;DHT22;697;51.114;6.542;2023-09-18T10:54:45;32.00;46.00
1405;DHT22;697;51.114;6.542;2023-09-18T10:57:11;32.40;45.50
1405;DHT22;697;51.114;6.542;2023-09-18T10:59:44;32.60;44.10
1405;DHT22;697;51.114;6.542;2023-09-18T11:02:15;32.90;43.90
1405;DHT22;697;51.114;6.542;2023-09-18T11:04:43;33.10;43.80
1405;DHT22;697;51.114;6.542;2023-09-18T11:07:19;33.00;43.40
1405;DHT22;697;51.114;6.542;2023-09-18T11:09:47;33.10;42.60
1405;DHT22;697;51.114;6.542;2023-09-18T11:12:15;32.90;43.00
1405;DHT22;697;51.114;6.542;2023-09-18T11:14:47;32.10;44.10
1405;DHT22;697;51.114;6.542;2023-09-18T11:17:36;31.50;46.20
1405;DHT22;697;51.114;6.542;2023-09-18T11:20:04;30.70;47.30
1405;DHT22;697;51.114;6.542;2023-09-18T11:22:34;30.70;48.30
1405;DHT22;697;51.114;6.542;2023-09-18T11:25:36;31.20;47.40
1405;DHT22;697;51.114;6.542;2023-09-18T11:28:04;31.70;46.50
1405;DHT22;697;51.114;6.542;2023-09-18T11:30:33;32.50;45.10
1405;DHT22;697;51.114;6.542;2023-09-18T11:33:03;32.70;44.60
1405;DHT22;697;51.114;6.542;2023-09-18T11:35:31;32.60;43.40
1405;DHT22;697;51.114;6.542;2023-09-18T11:38:05;33.00;43.30
1405;DHT22;697;51.114;6.542;2023-09-18T11:40:34;33.00;41.70
1405;DHT22;697;51.114;6.542;2023-09-18T11:43:23;32.80;43.80
1405;DHT22;697;51.114;6.542;2023-09-18T11:45:51;32.10;43.40
1405;DHT22;697;51.114;6.542;2023-09-18T11:48:20;31.10;44.70
1405;DHT22;697;51.114;6.542;2023-09-18T11:50:51;30.40;46.90
1405;DHT22;697;51.114;6.542;2023-09-18T11:53:20;29.60;47.50
1405;DHT22;697;51.114;6.542;2023-09-18T11:55:47;29.40;48.40
1405;DHT22;697;51.114;6.542;2023-09-18T11:58:14;29.60;48.40
1405;DHT22;697;51.114;6.542;2023-09-18T12:00:41;29.80;47.50
1405;DHT22;697;51.114;6.542;2023-09-18T12:03:15;29.90;48.30
1405;DHT22;697;51.114;6.542;2023-09-18T12:05:45;30.60;46.40
1405;DHT22;697;51.114;6.542;2023-09-18T12:08:14;31.30;46.30
1405;DHT22;697;51.114;6.542;2023-09-18T12:10:40;32.00;44.00
1405;DHT22;697;51.114;6.542;2023-09-18T12:13:07;32.80;43.00
1405;DHT22;697;51.114;6.542;2023-09-18T12:15:34;33.90;40.90
1405;DHT22;697;51.114;6.542;2023-09-18T12:18:08;34.60;39.20
1405;DHT22;697;51.114;6.542;2023-09-18T12:20:37;35.60;36.30
1405;DHT22;697;51.114;6.542;2023-09-18T12:23:07;36.30;35.50
1405;DHT22;697;51.114;6.542;2023-09-18T12:25:33;37.30;32.80
1405;DHT22;697;51.114;6.542;2023-09-18T12:28:00;37.90;31.30
1405;DHT22;697;51.114;6.542;2023-09-18T12:30:29;38.30;30.70
1405;DHT22;697;51.114;6.542;2023-09-18T12:32:58;38.20;29.50
1405;DHT22;697;51.114;6.542;2023-09-18T12:35:26;37.90;30.00
1405;DHT22;697;51.114;6.542;2023-09-18T12:37:55;37.40;30.10
1405;DHT22;697;51.114;6.542;2023-09-18T12:40:24;36.30;30.70
1405;DHT22;697;51.114;6.542;2023-09-18T12:42:51;36.00;31.40
1405;DHT22;697;51.114;6.542;2023-09-18T12:45:19;36.00;31.90
1405;DHT22;697;51.114;6.542;2023-09-18T12:47:46;36.50;31.30
1405;DHT22;697;51.114;6.542;2023-09-18T12:50:13;36.90;30.30
1405;DHT22;697;51.114;6.542;2023-09-18T12:52:40;37.40;30.40
1405;DHT22;697;51.114;6.542;2023-09-18T12:55:08;38.00;30.00
1405;DHT22;697;51.114;6.542;2023-09-18T12:57:36;38.20;29.10
1405;DHT22;697;51.114;6.542;2023-09-18T13:00:09;38.00;29.80
1405;DHT22;697;51.114;6.542;2023-09-18T13:02:38;38.30;29.40
1405;DHT22;697;51.114;6.542;2023-09-18T13:05:06;38.80;28.90
1405;DHT22;697;51.114;6.542;2023-09-18T13:07:43;39.20;28.00
1405;DHT22;697;51.114;6.542;2023-09-18T13:10:10;39.80;26.70
1405;DHT22;697;51.114;6.542;2023-09-18T13:12:41;40.10;26.90
1405;DHT22;697;51.114;6.542;2023-09-18T13:15:08;40.50;25.60
1405;DHT22;697;51.114;6.542;2023-09-18T13:17:42;40.20;25.90
1405;DHT22;697;51.114;6.542;2023-09-18T13:20:12;39.10;26.90
1405;DHT22;697;51.114;6.542;2023-09-18T13:22:40;37.80;29.00
1405;DHT22;697;51.114;6.542;2023-09-18T13:25:08;37.70;29.20
1405;DHT22;697;51.114;6.542;2023-09-18T13:27:34;38.30;28.90
1405;DHT22;697;51.114;6.542;2023-09-18T13:30:04;38.10;28.50
1405;DHT22;697;51.114;6.542;2023-09-18T13:32:33;38.30;28.70
1405;DHT22;697;51.114;6.542;2023-09-18T13:35:01;38.70;29.00
1405;DHT22;697;51.114;6.542;2023-09-18T13:37:29;39.20;28.40
1405;DHT22;697;51.114;6.542;2023-09-18T13:39:56;39.10;26.60
1405;DHT22;697;51.114;6.542;2023-09-18T13:42:22;39.00;26.90
1405;DHT22;697;51.114;6.542;2023-09-18T13:44:49;39.30;26.50
1405;DHT22;697;51.114;6.542;2023-09-18T13:47:17;39.70;26.00
1405;DHT22;697;51.114;6.542;2023-09-18T13:49:44;39.90;25.70
1405;DHT22;697;51.114;6.542;2023-09-18T13:52:12;40.30;25.60
1405;DHT22;697;51.114;6.542;2023-09-18T13:54:39;40.60;25.40
1405;DHT22;697;51.114;6.542;2023-09-18T13:57:06;40.10;25.00
1405;DHT22;697;51.114;6.542;2023-09-18T13:59:33;40.20;26.40
1405;DHT22;697;51.114;6.542;2023-09-18T14:02:00;40.10;25.00
1405;DHT22;697;51.114;6.542;2023-09-18T14:04:30;40.20;25.50
1405;DHT22;697;51.114;6.542;2023-09-18T14:06:58;40.20;25.90
1405;DHT22;697;51.114;6.542;2023-09-18T14:09:25;39.70;25.30
1405;DHT22;697;51.114;6.542;2023-09-18T14:11:51;39.30;25.60
1405;DHT22;697;51.114;6.542;2023-09-18T14:14:20;38.50;26.30
1405;DHT22;697;51.114;6.542;2023-09-18T14:16:47;38.70;26.80
1405;DHT22;697;51.114;6.542;2023-09-18T14:19:15;39.00;25.40
1405;DHT22;697;51.114;6.542;2023-09-18T14:21:43;39.30;25.50
1405;DHT22;697;51.114;6.542;2023-09-18T14:24:10;39.80;25.30
1405;DHT22;697;51.114;6.542;2023-09-18T14:26:37;40.20;24.80
1405;DHT22;697;51.114;6.542;2023-09-18T14:29:07;40.20;24.90
1405;DHT22;697;51.114;6.542;2023-09-18T14:31:34;40.40;24.50
1405;DHT22;697;51.114;6.542;2023-09-18T14:34:00;40.50;24.80
1405;DHT22;697;51.114;6.542;2023-09-18T14:36:27;40.40;25.20
1405;DHT22;697;51.114;6.542;2023-09-18T14:38:56;40.30;24.90
1405;DHT22;697;51.114;6.542;2023-09-18T14:41:23;40.20;24.40
1405;DHT22;697;51.114;6.542;2023-09-18T14:43:50;40.50;24.60
1405;DHT22;697;51.114;6.542;2023-09-18T14:46:17;40.50;23.80
1405;DHT22;697;51.114;6.542;2023-09-18T14:48:44;40.50;23.60
1405;DHT22;697;51.114;6.542;2023-09-18T14:51:11;40.30;24.10
1405;DHT22;697;51.114;6.542;2023-09-18T14:53:37;40.10;23.80
1405;DHT22;697;51.114;6.542;2023-09-18T14:56:05;40.00;24.30
1405;DHT22;697;51.114;6.542;2023-09-18T14:58:33;40.00;24.10
1405;DHT22;697;51.114;6.542;2023-09-18T15:00:59;40.00;24.10
1405;DHT22;697;51.114;6.542;2023-09-18T15:03:26;39.90;24.90
1405;DHT22;697;51.114;6.542;2023-09-18T15:05:53;39.80;24.80
1405;DHT22;697;51.114;6.542;2023-09-18T15:08:23;40.00;24.70
1405;DHT22;697;51.114;6.542;2023-09-18T15:10:50;39.80;24.10
1405;DHT22;697;51.114;6.542;2023-09-18T15:13:18;39.30;24.20
1405;DHT22;697;51.114;6.542;2023-09-18T15:15:45;39.20;24.70
1405;DHT22;697;51.114;6.542;2023-09-18T15:18:12;39.20;25.10
1405;DHT22;697;51.114;6.542;2023-09-18T15:20:38;38.80;25.40
1405;DHT22;697;51.114;6.542;2023-09-18T15:23:06;38.50;25.30
1405;DHT22;697;51.114;6.542;2023-09-18T15:25:33;38.00;25.50
1405;DHT22;697;51.114;6.542;2023-09-18T15:28:04;37.80;26.10
1405;DHT22;697;51.114;6.542;2023-09-18T15:30:32;36.80;27.30
1405;DHT22;697;51.114;6.542;2023-09-18T15:33:01;35.30;28.40
1405;DHT22;697;51.114;6.542;2023-09-18T15:35:28;34.30;30.20
1405;DHT22;697;51.114;6.542;2023-09-18T15:37:55;33.60;31.80
1405;DHT22;697;51.114;6.542;2023-09-18T15:40:21;33.20;31.90
1405;DHT22;697;51.114;6.542;2023-09-18T15:42:49;32.80;32.90
1405;DHT22;697;51.114;6.542;2023-09-18T15:45:16;32.50;33.40
1405;DHT22;697;51.114;6.542;2023-09-18T15:47:44;32.60;34.00
1405;DHT22;697;51.114;6.542;2023-09-18T15:50:12;32.70;34.00
1405;DHT22;697;51.114;6.542;2023-09-18T15:52:39;32.90;33.60
1405;DHT22;697;51.114;6.542;2023-09-18T15:55:07;33.10;33.70
1405;DHT22;697;51.114;6.542;2023-09-18T15:57:35;33.40;32.70
1405;DHT22;697;51.114;6.542;2023-09-18T16:00:05;33.70;32.70
1405;DHT22;697;51.114;6.542;2023-09-18T16:02:33;34.00;31.90
1405;DHT22;697;51.114;6.542;2023-09-18T16:05:02;34.30;32.00
1405;DHT22;697;51.114;6.542;2023-09-18T16:07:30;34.50;31.30
1405;DHT22;697;51.114;6.542;2023-09-18T16:09:57;34.30;30.50
1405;DHT22;697;51.114;6.542;2023-09-18T16:12:24;33.80;31.80
1405;DHT22;697;51.114;6.542;2023-09-18T16:14:51;33.40;33.40
1405;DHT22;697;51.114;6.542;2023-09-18T16:17:18;32.80;34.30
1405;DHT22;697;51.114;6.542;2023-09-18T16:19:46;32.20;35.10
1405;DHT22;697;51.114;6.542;2023-09-18T16:22:14;31.60;36.50